createdAt,value
2017-10-03T00:00:47.913Z,99.99
2017-10-03T00:01:47.889Z,99.99
2017-10-03T00:02:48.176Z,99.99
2017-10-03T00:03:47.853Z,99.99
2017-10-03T00:04:48.141Z,99.99
2017-10-03T00:05:48.132Z,99.99
2017-10-03T00:06:47.800Z,99.99
2017-10-03T00:07:48.134Z,99.99
2017-10-03T00:08:48.080Z,99.99
2017-10-03T00:09:48.050Z,99.99
2017-10-03T00:10:48.040Z,99.99
2017-10-03T00:11:48.010Z,99.99
2017-10-03T00:12:48.003Z,99.99
2017-10-03T00:13:47.678Z,99.99
2017-10-03T00:14:47.972Z,99.99
2017-10-03T00:15:47.957Z,99.99
2017-10-03T00:16:47.932Z,99.99
2017-10-03T00:17:47.898Z,99.99
2017-10-03T00:18:47.903Z,99.99
2017-10-03T00:19:47.870Z,99.99
2017-10-03T00:20:47.848Z,99.99
2017-10-03T00:21:47.850Z,99.99
2017-10-03T00:22:47.837Z,99.99
2017-10-03T00:23:47.810Z,99.99
2017-10-03T00:24:47.794Z,99.99
2017-10-03T00:25:47.764Z,99.99
2017-10-03T00:26:47.449Z,99.99
2017-10-03T00:27:47.740Z,99.99
2017-10-03T00:28:47.709Z,99.99
2017-10-03T00:29:47.680Z,99.99
2017-10-03T00:30:47.676Z,99.99
2017-10-03T00:31:47.660Z,99.99
2017-10-03T00:32:47.649Z,99.99
2017-10-03T00:33:47.312Z,99.99
2017-10-03T00:34:47.599Z,99.99
2017-10-03T00:35:47.581Z,99.99
2017-10-03T00:36:47.563Z,99.99
2017-10-03T00:37:47.551Z,99.99
2017-10-03T00:38:47.519Z,99.99
2017-10-03T00:39:47.509Z,99.99
2017-10-03T00:40:47.490Z,99.99
2017-10-03T00:41:47.472Z,99.99
2017-10-03T00:42:47.460Z,99.99
2017-10-03T00:43:47.439Z,99.99
2017-10-03T00:44:47.419Z,99.99
2017-10-03T00:45:47.088Z,99.99
2017-10-03T00:46:47.379Z,99.99
2017-10-03T00:47:47.362Z,99.99
2017-10-03T00:48:47.334Z,99.99
2017-10-03T00:49:47.013Z,99.99
2017-10-03T00:50:46.990Z,99.99
2017-10-03T00:51:47.290Z,99.99
2017-10-03T00:52:46.966Z,99.99
2017-10-03T00:53:46.949Z,99.99
2017-10-03T00:54:47.228Z,99.99
2017-10-03T00:55:47.218Z,99.99
2017-10-03T00:56:47.208Z,99.99
2017-10-03T00:57:46.874Z,99.99
2017-10-03T00:58:47.160Z,99.99
2017-10-03T00:59:47.139Z,99.99
2017-10-03T01:00:47.118Z,99.99
2017-10-03T01:01:47.119Z,99.99
2017-10-03T01:02:46.779Z,99.99
2017-10-03T01:03:46.760Z,99.99
2017-10-03T01:04:47.069Z,99.99
2017-10-03T01:05:46.722Z,99.99
2017-10-03T01:06:47.010Z,99.99
2017-10-03T01:07:46.718Z,99.99
2017-10-03T01:08:46.666Z,99.99
2017-10-03T01:09:46.981Z,99.99
2017-10-03T01:10:46.939Z,99.99
2017-10-03T01:11:46.929Z,99.99
2017-10-03T01:12:46.892Z,99.99
2017-10-03T01:13:46.889Z,99.99
2017-10-03T01:14:46.862Z,99.99
2017-10-03T01:15:46.839Z,99.99
2017-10-03T01:16:46.520Z,99.99
2017-10-03T01:17:46.829Z,99.99
2017-10-03T01:18:46.791Z,99.99
2017-10-03T01:19:46.776Z,99.99
2017-10-03T01:20:46.762Z,99.99
2017-10-03T01:21:46.729Z,99.99
2017-10-03T01:22:46.726Z,99.99
2017-10-03T01:23:46.701Z,99.99
2017-10-03T01:24:46.682Z,99.99
2017-10-03T01:25:46.408Z,99.99
2017-10-03T01:26:46.647Z,99.99
2017-10-03T01:27:46.622Z,99.99
2017-10-03T01:28:46.620Z,99.99
2017-10-03T01:29:46.589Z,99.99
2017-10-03T01:30:46.261Z,99.99
2017-10-03T01:31:46.569Z,99.99
2017-10-03T01:32:46.230Z,99.99
2017-10-03T01:33:46.209Z,99.99
2017-10-03T01:34:46.499Z,99.99
2017-10-03T01:35:46.479Z,99.99
2017-10-03T01:36:46.149Z,99.99
2017-10-03T01:37:46.449Z,99.99
2017-10-03T01:38:46.439Z,99.99
2017-10-03T01:39:46.409Z,99.99
2017-10-03T01:40:46.398Z,99.99
2017-10-03T01:41:46.368Z,99.99
2017-10-03T01:42:46.037Z,99.99
2017-10-03T01:43:46.029Z,99.99
2017-10-03T01:44:46.317Z,99.99
2017-10-03T01:45:46.308Z,99.99
2017-10-03T01:46:46.275Z,99.99
2017-10-03T01:47:46.263Z,99.99
2017-10-03T01:48:46.241Z,99.99
2017-10-03T01:49:46.224Z,99.99
2017-10-03T01:50:45.899Z,99.99
2017-10-03T01:51:46.192Z,99.99
2017-10-03T01:52:46.171Z,99.99
2017-10-03T01:53:46.148Z,99.99
2017-10-03T01:54:45.817Z,99.99
2017-10-03T01:55:46.117Z,99.99
2017-10-03T01:56:46.100Z,99.99
2017-10-03T01:57:46.079Z,99.99
2017-10-03T01:58:45.748Z,99.99
2017-10-03T01:59:45.730Z,99.99
2017-10-03T02:00:46.021Z,99.99
2017-10-03T02:01:45.999Z,99.99
2017-10-03T02:02:45.680Z,99.99
2017-10-03T02:03:45.970Z,99.99
2017-10-03T02:04:45.947Z,99.99
2017-10-03T02:05:45.930Z,99.99
2017-10-03T02:06:45.613Z,99.99
2017-10-03T02:07:45.892Z,99.99
2017-10-03T02:08:45.885Z,99.99
2017-10-03T02:09:45.865Z,99.99
2017-10-03T02:10:45.532Z,99.99
2017-10-03T02:11:45.511Z,99.99
2017-10-03T02:12:45.813Z,99.99
2017-10-03T02:13:45.791Z,99.99
2017-10-03T02:14:45.462Z,99.99
2017-10-03T02:15:45.748Z,99.99
2017-10-03T02:16:45.418Z,99.99
2017-10-03T02:17:45.710Z,99.99
2017-10-03T02:18:45.698Z,99.99
2017-10-03T02:19:45.682Z,99.99
2017-10-03T02:20:45.670Z,99.99
2017-10-03T02:21:45.634Z,99.99
2017-10-03T02:22:45.619Z,99.99
2017-10-03T02:23:45.612Z,99.99
2017-10-03T02:24:45.585Z,99.99
2017-10-03T02:25:45.578Z,99.99
2017-10-03T02:26:45.241Z,99.99
2017-10-03T02:27:45.532Z,99.99
2017-10-03T02:28:45.202Z,99.99
2017-10-03T02:29:45.503Z,99.99
2017-10-03T02:30:45.471Z,99.99
2017-10-03T02:31:45.151Z,99.99
2017-10-03T02:32:45.127Z,99.99
2017-10-03T02:33:45.439Z,99.99
2017-10-03T02:34:45.411Z,99.99
2017-10-03T02:35:45.391Z,99.99
2017-10-03T02:36:45.063Z,99.99
2017-10-03T02:37:45.357Z,99.99
2017-10-03T02:38:45.032Z,99.99
2017-10-03T02:39:45.318Z,99.99
2017-10-03T02:40:45.287Z,99.99
2017-10-03T02:41:45.282Z,99.99
2017-10-03T02:42:44.940Z,99.99
2017-10-03T02:43:45.239Z,99.99
2017-10-03T02:44:45.214Z,99.99
2017-10-03T02:45:45.202Z,99.99
2017-10-03T02:46:44.869Z,99.99
2017-10-03T02:47:45.158Z,99.99
2017-10-03T02:48:45.151Z,99.99
2017-10-03T02:49:45.129Z,99.99
2017-10-03T02:50:45.106Z,99.99
2017-10-03T02:51:44.784Z,99.99
2017-10-03T02:52:45.068Z,99.99
2017-10-03T02:53:45.081Z,99.99
2017-10-03T02:54:45.036Z,99.99
2017-10-03T02:55:45.020Z,99.99
2017-10-03T02:56:45.001Z,99.99
2017-10-03T02:57:44.670Z,99.99
2017-10-03T02:58:44.957Z,99.99
2017-10-03T02:59:44.733Z,99.99
2017-10-03T03:00:44.612Z,99.99
2017-10-03T03:01:44.593Z,99.99
2017-10-03T03:02:44.879Z,99.99
2017-10-03T03:03:44.870Z,99.99
2017-10-03T03:04:44.847Z,99.99
2017-10-03T03:05:44.569Z,99.99
2017-10-03T03:06:44.499Z,99.99
2017-10-03T03:07:44.784Z,99.99
2017-10-03T03:08:44.780Z,99.99
2017-10-03T03:09:44.491Z,99.99
2017-10-03T03:10:44.435Z,99.99
2017-10-03T03:11:44.413Z,99.99
2017-10-03T03:12:44.396Z,99.99
2017-10-03T03:13:44.398Z,99.99
2017-10-03T03:14:44.671Z,99.99
2017-10-03T03:15:44.652Z,99.99
2017-10-03T03:16:44.630Z,99.99
2017-10-03T03:17:44.340Z,99.99
2017-10-03T03:18:44.280Z,99.99
2017-10-03T03:19:44.260Z,99.99
2017-10-03T03:20:44.240Z,99.99
2017-10-03T03:21:44.531Z,99.99
2017-10-03T03:22:44.520Z,99.99
2017-10-03T03:23:44.622Z,99.99
2017-10-03T03:24:44.470Z,99.99
2017-10-03T03:25:44.471Z,99.99
2017-10-03T03:26:44.472Z,99.99
2017-10-03T03:27:44.426Z,99.99
2017-10-03T03:28:44.410Z,99.99
2017-10-03T03:29:44.451Z,99.99
2017-10-03T03:30:44.360Z,99.99
2017-10-03T03:31:44.347Z,99.99
2017-10-03T03:32:44.320Z,99.99
2017-10-03T03:33:44.310Z,99.99
2017-10-03T03:34:44.289Z,99.99
2017-10-03T03:35:44.268Z,99.99
2017-10-03T03:36:44.251Z,99.99
2017-10-03T03:37:44.232Z,99.99
2017-10-03T03:38:44.216Z,99.99
2017-10-03T03:39:44.201Z,99.99
2017-10-03T03:40:43.864Z,99.99
2017-10-03T03:41:43.850Z,99.99
2017-10-03T03:42:44.130Z,99.99
2017-10-03T03:43:43.813Z,99.99
2017-10-03T03:44:44.110Z,99.99
2017-10-03T03:45:43.770Z,99.99
2017-10-03T03:46:44.090Z,99.99
2017-10-03T03:47:44.050Z,99.99
2017-10-03T03:48:44.029Z,99.99
2017-10-03T03:49:43.703Z,99.99
2017-10-03T03:50:43.990Z,99.99
2017-10-03T03:51:43.972Z,99.99
2017-10-03T03:52:43.951Z,99.99
2017-10-03T03:53:43.623Z,99.99
2017-10-03T03:54:43.902Z,99.99
2017-10-03T03:55:43.903Z,99.99
2017-10-03T03:56:43.561Z,99.99
2017-10-03T03:57:43.862Z,99.99
2017-10-03T03:58:43.830Z,99.99
2017-10-03T03:59:43.821Z,99.99
2017-10-03T04:00:43.813Z,99.99
2017-10-03T04:01:43.800Z,99.99
2017-10-03T04:02:43.776Z,99.99
2017-10-03T04:03:43.748Z,99.99
2017-10-03T04:04:43.733Z,99.99
2017-10-03T04:05:43.394Z,99.99
2017-10-03T04:06:43.379Z,99.99
2017-10-03T04:07:43.359Z,99.99
2017-10-03T04:08:43.651Z,99.99
2017-10-03T04:09:43.630Z,99.99
2017-10-03T04:10:43.621Z,99.99
2017-10-03T04:11:43.593Z,99.99
2017-10-03T04:12:43.267Z,99.99
2017-10-03T04:13:43.550Z,99.99
2017-10-03T04:14:43.233Z,99.99
2017-10-03T04:15:43.211Z,99.99
2017-10-03T04:16:43.196Z,99.99
2017-10-03T04:17:43.173Z,99.99
2017-10-03T04:18:43.457Z,99.99
2017-10-03T04:19:43.136Z,99.99
2017-10-03T04:20:43.119Z,99.99
2017-10-03T04:21:43.101Z,99.99
2017-10-03T04:22:43.078Z,99.99
2017-10-03T04:23:43.372Z,99.99
2017-10-03T04:24:43.349Z,99.99
2017-10-03T04:25:43.335Z,99.99
2017-10-03T04:26:43.311Z,99.99
2017-10-03T04:27:43.403Z,99.99
2017-10-03T04:28:42.969Z,99.99
2017-10-03T04:29:43.392Z,99.99
2017-10-03T04:30:43.250Z,99.99
2017-10-03T04:31:43.330Z,99.99
2017-10-03T04:32:43.202Z,99.99
2017-10-03T04:33:43.299Z,99.99
2017-10-03T04:34:43.172Z,99.99
2017-10-03T04:35:43.261Z,99.99
2017-10-03T04:36:43.130Z,99.99
2017-10-03T04:37:43.106Z,99.99
2017-10-03T04:38:43.081Z,99.99
2017-10-03T04:39:43.068Z,99.99
2017-10-03T04:40:43.045Z,99.99
2017-10-03T04:41:43.046Z,99.99
2017-10-03T04:42:43.025Z,99.99
2017-10-03T04:43:42.692Z,99.99
2017-10-03T04:44:43.013Z,99.99
2017-10-03T04:45:42.753Z,99.99
2017-10-03T04:46:42.630Z,99.99
2017-10-03T04:47:43.051Z,99.99
2017-10-03T04:48:42.913Z,99.99
2017-10-03T04:49:42.900Z,99.99
2017-10-03T04:50:42.550Z,99.99
2017-10-03T04:51:42.549Z,99.99
2017-10-03T04:52:42.520Z,99.99
2017-10-03T04:53:42.502Z,99.99
2017-10-03T04:54:42.800Z,99.99
2017-10-03T04:55:42.783Z,99.99
2017-10-03T04:56:42.761Z,99.99
2017-10-03T04:57:42.736Z,99.99
2017-10-03T04:58:42.715Z,99.99
2017-10-03T04:59:42.754Z,99.99
2017-10-03T05:00:42.685Z,99.99
2017-10-03T05:01:42.771Z,99.99
2017-10-03T05:02:42.771Z,99.99
2017-10-03T05:03:42.720Z,99.99
2017-10-03T05:04:42.611Z,99.99
2017-10-03T05:05:42.591Z,99.99
2017-10-03T05:06:42.250Z,99.99
2017-10-03T05:07:42.247Z,99.99
2017-10-03T05:08:42.220Z,99.99
2017-10-03T05:09:42.201Z,99.99
2017-10-03T05:10:42.488Z,99.99
2017-10-03T05:11:42.487Z,99.99
2017-10-03T05:12:42.140Z,99.99
2017-10-03T05:13:42.430Z,99.99
2017-10-03T05:14:42.415Z,99.99
2017-10-03T05:15:42.090Z,99.99
2017-10-03T05:16:42.390Z,99.99
2017-10-03T05:17:42.049Z,99.99
2017-10-03T05:18:42.339Z,99.99
2017-10-03T05:19:42.330Z,99.99
2017-10-03T05:20:41.990Z,99.99
2017-10-03T05:21:42.281Z,99.99
2017-10-03T05:22:42.268Z,99.99
2017-10-03T05:23:41.932Z,99.99
2017-10-03T05:24:42.336Z,99.99
2017-10-03T05:25:42.201Z,99.99
2017-10-03T05:26:41.878Z,99.99
2017-10-03T05:27:41.859Z,99.99
2017-10-03T05:28:41.849Z,99.99
2017-10-03T05:29:42.129Z,99.99
2017-10-03T05:30:42.112Z,99.99
2017-10-03T05:31:42.092Z,99.99
2017-10-03T05:32:42.093Z,99.99
2017-10-03T05:33:42.059Z,99.99
2017-10-03T05:34:42.035Z,99.99
2017-10-03T05:35:42.008Z,99.99
2017-10-03T05:36:41.687Z,99.99
2017-10-03T05:37:41.979Z,99.99
2017-10-03T05:38:41.958Z,99.99
2017-10-03T05:39:41.939Z,99.99
2017-10-03T05:40:41.930Z,99.99
2017-10-03T05:41:41.596Z,99.99
2017-10-03T05:42:41.879Z,99.99
2017-10-03T05:43:41.859Z,99.99
2017-10-03T05:44:41.852Z,99.99
2017-10-03T05:45:41.520Z,99.99
2017-10-03T05:46:41.809Z,99.99
2017-10-03T05:47:41.481Z,99.99
2017-10-03T05:48:41.778Z,99.99
2017-10-03T05:49:41.451Z,99.99
2017-10-03T05:50:41.729Z,99.99
2017-10-03T05:51:41.730Z,99.99
2017-10-03T05:52:41.391Z,99.99
2017-10-03T05:53:41.679Z,99.99
2017-10-03T05:54:41.350Z,99.99
2017-10-03T05:55:41.330Z,99.99
2017-10-03T05:56:41.319Z,99.99
2017-10-03T05:57:41.615Z,99.99
2017-10-03T05:58:41.589Z,99.99
2017-10-03T05:59:41.569Z,99.99
2017-10-03T06:00:41.548Z,99.99
2017-10-03T06:01:41.589Z,99.99
2017-10-03T06:02:41.208Z,99.99
2017-10-03T06:03:41.498Z,99.99
2017-10-03T06:04:41.158Z,99.99
2017-10-03T06:05:41.499Z,99.99
2017-10-03T06:06:41.436Z,99.99
2017-10-03T06:07:41.217Z,99.99
2017-10-03T06:08:41.390Z,99.99
2017-10-03T06:09:41.378Z,99.99
2017-10-03T06:10:41.362Z,99.99
2017-10-03T06:11:41.402Z,99.99
2017-10-03T06:12:41.320Z,99.99
2017-10-03T06:13:40.998Z,99.99
2017-10-03T06:14:40.981Z,99.99
2017-10-03T06:15:41.283Z,99.99
2017-10-03T06:16:41.255Z,99.99
2017-10-03T06:17:41.306Z,99.99
2017-10-03T06:18:40.901Z,99.99
2017-10-03T06:19:41.194Z,99.99
2017-10-03T06:20:41.167Z,99.99
2017-10-03T06:21:41.240Z,99.99
2017-10-03T06:22:41.152Z,99.99
2017-10-03T06:23:41.169Z,99.99
2017-10-03T06:24:41.162Z,99.99
2017-10-03T06:25:41.089Z,99.99
2017-10-03T06:26:41.070Z,99.99
2017-10-03T06:27:41.039Z,99.99
2017-10-03T06:28:41.018Z,99.99
2017-10-03T06:29:41.019Z,99.99
2017-10-03T06:30:40.988Z,99.99
2017-10-03T06:31:41.018Z,99.99
2017-10-03T06:32:40.948Z,99.99
2017-10-03T06:33:40.629Z,99.99
2017-10-03T06:34:40.910Z,99.99
2017-10-03T06:35:40.968Z,99.99
2017-10-03T06:36:40.880Z,99.99
2017-10-03T06:37:40.927Z,99.99
2017-10-03T06:38:40.532Z,99.99
2017-10-03T06:39:40.830Z,99.99
2017-10-03T06:40:40.809Z,99.99
2017-10-03T06:41:40.884Z,99.99
2017-10-03T06:42:40.799Z,99.99
2017-10-03T06:43:40.819Z,99.99
2017-10-03T06:44:40.789Z,99.99
2017-10-03T06:45:40.779Z,99.99
2017-10-03T06:46:40.712Z,99.99
2017-10-03T06:47:40.703Z,99.99
2017-10-03T06:48:40.367Z,99.99
2017-10-03T06:49:40.358Z,99.99
2017-10-03T06:50:40.710Z,99.99
2017-10-03T06:51:40.648Z,99.99
2017-10-03T06:52:40.687Z,99.99
2017-10-03T06:53:40.621Z,99.99
2017-10-03T06:54:40.601Z,99.99
2017-10-03T06:55:40.272Z,99.99
2017-10-03T06:56:40.252Z,99.99
2017-10-03T06:57:40.233Z,99.99
2017-10-03T06:58:40.520Z,99.99
2017-10-03T06:59:40.198Z,99.99
2017-10-03T07:00:40.189Z,99.99
2017-10-03T07:01:40.175Z,99.99
2017-10-03T07:02:40.479Z,99.99
2017-10-03T07:03:40.459Z,99.99
2017-10-03T07:04:40.444Z,99.99
2017-10-03T07:05:40.119Z,99.99
2017-10-03T07:06:40.421Z,99.99
2017-10-03T07:07:40.398Z,99.99
2017-10-03T07:08:40.388Z,99.99
2017-10-03T07:09:40.378Z,99.99
2017-10-03T07:10:40.361Z,99.99
2017-10-03T07:11:40.348Z,99.99
2017-10-03T07:12:40.330Z,99.99
2017-10-03T07:13:40.008Z,99.99
2017-10-03T07:14:40.300Z,99.99
2017-10-03T07:15:40.299Z,99.99
2017-10-03T07:16:40.290Z,99.99
2017-10-03T07:17:40.270Z,99.99
2017-10-03T07:18:40.249Z,99.99
2017-10-03T07:19:40.229Z,99.99
2017-10-03T07:20:39.920Z,99.99
2017-10-03T07:21:40.219Z,99.99
2017-10-03T07:22:39.889Z,99.99
2017-10-03T07:23:40.178Z,99.99
2017-10-03T07:24:40.180Z,99.99
2017-10-03T07:25:40.169Z,99.99
2017-10-03T07:26:40.139Z,99.99
2017-10-03T07:27:40.119Z,99.99
2017-10-03T07:28:39.797Z,99.99
2017-10-03T07:29:39.789Z,99.99
2017-10-03T07:30:40.086Z,99.99
2017-10-03T07:31:39.766Z,99.99
2017-10-03T07:32:40.051Z,99.99
2017-10-03T07:33:40.041Z,99.99
2017-10-03T07:34:40.019Z,99.99
2017-10-03T07:35:40.009Z,99.99
2017-10-03T07:36:39.998Z,99.99
2017-10-03T07:37:39.988Z,99.99
2017-10-03T07:38:39.960Z,99.99
2017-10-03T07:39:39.959Z,99.99
2017-10-03T07:40:39.950Z,99.99
2017-10-03T07:41:39.924Z,99.99
2017-10-03T07:42:39.921Z,99.99
2017-10-03T07:43:39.611Z,99.99
2017-10-03T07:44:39.891Z,99.99
2017-10-03T07:45:39.572Z,99.99
2017-10-03T07:46:39.888Z,99.99
2017-10-03T07:47:39.541Z,99.99
2017-10-03T07:48:39.839Z,99.99
2017-10-03T07:49:39.820Z,99.99
2017-10-03T07:50:39.496Z,99.99
2017-10-03T07:51:39.800Z,99.99
2017-10-03T07:52:39.798Z,99.99
2017-10-03T07:53:39.769Z,99.99
2017-10-03T07:54:39.749Z,99.99
2017-10-03T07:55:39.732Z,99.99
2017-10-03T07:56:39.732Z,99.99
2017-10-03T07:57:39.724Z,99.99
2017-10-03T07:58:39.717Z,99.99
2017-10-03T07:59:39.683Z,99.99
2017-10-03T08:00:39.671Z,99.99
2017-10-03T08:01:39.641Z,99.99
2017-10-03T08:02:39.320Z,99.99
2017-10-03T08:03:39.610Z,99.99
2017-10-03T08:04:39.655Z,99.99
2017-10-03T08:05:39.579Z,99.99
2017-10-03T08:06:39.582Z,99.99
2017-10-03T08:07:39.559Z,99.99
2017-10-03T08:08:39.473Z,99.99
2017-10-03T08:09:39.509Z,99.99
2017-10-03T08:10:39.511Z,99.99
2017-10-03T08:11:39.489Z,99.99
2017-10-03T08:12:39.524Z,99.99
2017-10-03T08:13:39.453Z,99.99
2017-10-03T08:14:39.459Z,99.99
2017-10-03T08:15:39.428Z,99.99
2017-10-03T08:16:39.101Z,99.99
2017-10-03T08:17:39.398Z,99.99
2017-10-03T08:18:39.378Z,99.99
2017-10-03T08:19:39.363Z,99.99
2017-10-03T08:20:39.132Z,99.99
2017-10-03T08:21:39.009Z,99.99
2017-10-03T08:22:39.370Z,99.99
2017-10-03T08:23:39.287Z,99.99
2017-10-03T08:24:39.270Z,99.99
2017-10-03T08:25:39.259Z,99.99
2017-10-03T08:26:39.239Z,99.99
2017-10-03T08:27:39.304Z,99.99
2017-10-03T08:28:39.302Z,99.99
2017-10-03T08:29:38.870Z,99.99
2017-10-03T08:30:39.174Z,99.99
2017-10-03T08:31:39.168Z,99.99
2017-10-03T08:32:39.142Z,99.99
2017-10-03T08:33:39.150Z,99.99
2017-10-03T08:34:39.105Z,99.99
2017-10-03T08:35:39.077Z,99.99
2017-10-03T08:36:39.120Z,99.99
2017-10-03T08:37:38.738Z,99.99
2017-10-03T08:38:39.114Z,99.99
2017-10-03T08:39:38.701Z,99.99
2017-10-03T08:40:38.692Z,99.99
2017-10-03T08:41:38.984Z,99.99
2017-10-03T08:42:38.703Z,99.99
2017-10-03T08:43:38.958Z,99.99
2017-10-03T08:44:38.944Z,99.99
2017-10-03T08:45:38.962Z,99.99
2017-10-03T08:46:38.910Z,99.99
2017-10-03T08:47:38.892Z,99.99
2017-10-03T08:48:38.862Z,99.99
2017-10-03T08:49:38.854Z,99.99
2017-10-03T08:50:38.841Z,99.99
2017-10-03T08:51:38.502Z,99.99
2017-10-03T08:52:38.816Z,99.99
2017-10-03T08:53:38.489Z,99.99
2017-10-03T08:54:38.786Z,99.99
2017-10-03T08:55:38.747Z,99.99
2017-10-03T08:56:38.740Z,99.99
2017-10-03T08:57:38.910Z,99.99
2017-10-03T08:58:38.704Z,99.99
2017-10-03T08:59:38.790Z,99.99
2017-10-03T09:00:38.673Z,99.99
2017-10-03T09:01:38.776Z,99.99
2017-10-03T09:02:38.646Z,99.99
2017-10-03T09:03:38.704Z,99.99
2017-10-03T09:04:38.624Z,99.99
2017-10-03T09:05:38.705Z,99.99
2017-10-03T09:06:38.587Z,99.99
2017-10-03T09:07:38.266Z,99.99
2017-10-03T09:08:38.559Z,99.99
2017-10-03T09:09:38.249Z,99.99
2017-10-03T09:10:38.550Z,99.99
2017-10-03T09:11:38.558Z,99.99
2017-10-03T09:12:38.519Z,99.99
2017-10-03T09:13:38.519Z,99.99
2017-10-03T09:14:38.505Z,99.99
2017-10-03T09:15:38.161Z,99.99
2017-10-03T09:16:38.454Z,99.99
2017-10-03T09:17:38.445Z,99.99
2017-10-03T09:18:38.416Z,99.99
2017-10-03T09:19:38.448Z,99.99
2017-10-03T09:20:38.413Z,99.99
2017-10-03T09:21:38.381Z,99.99
2017-10-03T09:22:38.367Z,99.99
2017-10-03T09:23:38.353Z,99.99
2017-10-03T09:24:38.340Z,99.99
2017-10-03T09:25:38.330Z,99.99
2017-10-03T09:26:38.301Z,99.99
2017-10-03T09:27:38.311Z,99.99
2017-10-03T09:28:38.272Z,99.99
2017-10-03T09:29:38.267Z,99.99
2017-10-03T09:30:38.268Z,99.68
2017-10-03T09:31:38.268Z,98.91
2017-10-03T09:32:37.932Z,97.81
2017-10-03T09:33:38.214Z,97.76
2017-10-03T09:34:38.210Z,95.12
2017-10-03T09:35:38.184Z,94.39
2017-10-03T09:36:38.183Z,93.04
2017-10-03T09:37:38.159Z,92.76
2017-10-03T09:38:37.841Z,92.99
2017-10-03T09:39:38.143Z,93.04
2017-10-03T09:40:37.816Z,92.85
2017-10-03T09:41:38.110Z,91.79
2017-10-03T09:42:38.098Z,91.69
2017-10-03T09:43:38.111Z,92.18
2017-10-03T09:44:38.087Z,92.47
2017-10-03T09:45:38.070Z,93.24
2017-10-03T09:46:38.066Z,92.94
2017-10-03T09:47:38.058Z,91.6
2017-10-03T09:48:38.040Z,90.68
2017-10-03T09:49:38.021Z,89.62
2017-10-03T09:50:38.020Z,89.37
2017-10-03T09:51:38.016Z,88.84
2017-10-03T09:52:37.700Z,88.51
2017-10-03T09:53:37.991Z,89.09
2017-10-03T09:54:37.975Z,89.14
2017-10-03T09:55:37.967Z,89.62
2017-10-03T09:56:37.961Z,90.16
2017-10-03T09:57:37.974Z,91.02
2017-10-03T09:58:37.938Z,91.27
2017-10-03T09:59:37.988Z,91.75
2017-10-03T10:00:37.604Z,91.02
2017-10-03T10:01:37.916Z,88.75
2017-10-03T10:02:37.898Z,87.45
2017-10-03T10:03:37.931Z,86.29
2017-10-03T10:04:37.877Z,86.58
2017-10-03T10:05:37.908Z,87.65
2017-10-03T10:06:37.848Z,88.51
2017-10-03T10:07:37.858Z,89.05
2017-10-03T10:08:37.838Z,89.72
2017-10-03T10:09:37.829Z,88.61
2017-10-03T10:10:37.799Z,87.02
2017-10-03T10:11:37.803Z,85.61
2017-10-03T10:12:37.797Z,85.27
2017-10-03T10:13:37.856Z,84.31
2017-10-03T10:14:37.454Z,84.35
2017-10-03T10:15:37.749Z,83.91
2017-10-03T10:16:37.737Z,83.37
2017-10-03T10:17:37.422Z,82.79
2017-10-03T10:18:37.721Z,82.21
2017-10-03T10:19:37.708Z,82.65
2017-10-03T10:20:37.388Z,83.09
2017-10-03T10:21:37.697Z,83.92
2017-10-03T10:22:37.369Z,84.94
2017-10-03T10:23:37.358Z,86.35
2017-10-03T10:24:37.348Z,86.59
2017-10-03T10:25:37.337Z,87.26
2017-10-03T10:26:37.637Z,88.09
2017-10-03T10:27:37.625Z,89.78
2017-10-03T10:28:37.611Z,90.31
2017-10-03T10:29:37.605Z,90.79
2017-10-03T10:30:37.584Z,91.17
2017-10-03T10:31:37.257Z,91.17
2017-10-03T10:32:37.562Z,91.94
2017-10-03T10:33:37.560Z,91.56
2017-10-03T10:34:37.527Z,91.22
2017-10-03T10:35:37.528Z,91.89
2017-10-03T10:36:37.510Z,91.7
2017-10-03T10:37:37.501Z,90.16
2017-10-03T10:38:37.169Z,90.73
2017-10-03T10:39:37.472Z,90.98
2017-10-03T10:40:37.136Z,90.79
2017-10-03T10:41:37.441Z,90.89
2017-10-03T10:42:37.110Z,91.46
2017-10-03T10:43:37.408Z,91.52
2017-10-03T10:44:37.399Z,92.29
2017-10-03T10:45:37.072Z,91.94
2017-10-03T10:46:37.387Z,91.08
2017-10-03T10:47:37.350Z,91.08
2017-10-03T10:48:37.340Z,90.98
2017-10-03T10:49:37.323Z,90.89
2017-10-03T10:50:37.313Z,90.69
2017-10-03T10:51:37.293Z,91.17
2017-10-03T10:52:37.292Z,90.31
2017-10-03T10:53:37.267Z,89.83
2017-10-03T10:54:37.052Z,89.73
2017-10-03T10:55:36.930Z,89.54
2017-10-03T10:56:36.929Z,89.44
2017-10-03T10:57:37.221Z,89.2
2017-10-03T10:58:37.360Z,89.05
2017-10-03T10:59:37.198Z,87.65
2017-10-03T11:00:37.218Z,86.4
2017-10-03T11:01:36.846Z,85.19
2017-10-03T11:02:36.837Z,83.88
2017-10-03T11:03:37.135Z,83.59
2017-10-03T11:04:37.121Z,83.11
2017-10-03T11:05:36.801Z,82.92
2017-10-03T11:06:37.105Z,83.26
2017-10-03T11:07:37.096Z,83.55
2017-10-03T11:08:36.758Z,83.3
2017-10-03T11:09:37.078Z,81.9
2017-10-03T11:10:37.049Z,81.12
2017-10-03T11:11:37.111Z,80.78
2017-10-03T11:12:37.013Z,79.81
2017-10-03T11:13:37.047Z,79.72
2017-10-03T11:14:37.012Z,79.56
2017-10-03T11:15:36.986Z,78.99
2017-10-03T11:16:36.973Z,77.48
2017-10-03T11:17:36.641Z,77.48
2017-10-03T11:18:36.930Z,76.22
2017-10-03T11:19:36.942Z,76.47
2017-10-03T11:20:36.917Z,76.82
2017-10-03T11:21:36.902Z,77.4
2017-10-03T11:22:36.588Z,78.61
2017-10-03T11:23:36.900Z,78.71
2017-10-03T11:24:36.867Z,79.25
2017-10-03T11:25:36.941Z,79.16
2017-10-03T11:26:36.842Z,80.37
2017-10-03T11:27:36.832Z,81.81
2017-10-03T11:28:36.503Z,82.2
2017-10-03T11:29:36.501Z,81.43
2017-10-03T11:30:36.791Z,81.33
2017-10-03T11:31:36.782Z,79.97
2017-10-03T11:32:36.761Z,81.74
2017-10-03T11:33:36.770Z,80.49
2017-10-03T11:34:36.741Z,80.58
2017-10-03T11:35:36.420Z,79.75
2017-10-03T11:36:36.713Z,79.08
2017-10-03T11:37:39.211Z,79.12
2017-10-03T11:38:36.710Z,79.99
2017-10-03T11:39:36.679Z,78.25
2017-10-03T11:40:36.663Z,77.71
2017-10-03T11:41:36.349Z,76.26
2017-10-03T11:42:36.643Z,75.78
2017-10-03T11:43:36.635Z,75.2
2017-10-03T11:44:36.624Z,74.75
2017-10-03T11:45:36.610Z,74.23
2017-10-03T11:46:36.604Z,74.23
2017-10-03T11:47:36.582Z,74.52
2017-10-03T11:48:36.570Z,73.84
2017-10-03T11:49:36.551Z,74.68
2017-10-03T11:50:36.240Z,75.47
2017-10-03T11:51:36.231Z,77.21
2017-10-03T11:52:36.216Z,76.78
2017-10-03T11:53:36.215Z,77.59
2017-10-03T11:54:36.500Z,78.27
2017-10-03T11:55:36.493Z,77.59
2017-10-03T11:56:36.171Z,75.64
2017-10-03T11:57:36.481Z,76.03
2017-10-03T11:58:36.449Z,74.87
2017-10-03T11:59:36.448Z,74.58
2017-10-03T12:00:36.441Z,74.77
2017-10-03T12:01:36.444Z,75.06
2017-10-03T12:02:36.413Z,76.37
2017-10-03T12:03:36.393Z,76.76
2017-10-03T12:04:36.383Z,76.18
2017-10-03T12:05:36.390Z,75.7
2017-10-03T12:06:36.383Z,76.09
2017-10-03T12:07:36.357Z,76.43
2017-10-03T12:08:36.342Z,76.78
2017-10-03T12:09:36.321Z,77.07
2017-10-03T12:10:36.316Z,78.09
2017-10-03T12:11:35.991Z,79.64
2017-10-03T12:12:36.289Z,80.27
2017-10-03T12:13:35.964Z,81.68
2017-10-03T12:14:36.282Z,82.16
2017-10-03T12:15:36.247Z,82.89
2017-10-03T12:16:36.240Z,83.66
2017-10-03T12:17:36.240Z,85.2
2017-10-03T12:18:36.201Z,85.83
2017-10-03T12:19:35.906Z,86.6
2017-10-03T12:20:36.179Z,86.12
2017-10-03T12:21:35.884Z,86.41
2017-10-03T12:22:36.174Z,86.41
2017-10-03T12:23:36.203Z,85.64
2017-10-03T12:24:36.134Z,85.58
2017-10-03T12:25:35.901Z,85.05
2017-10-03T12:26:36.092Z,85.49
2017-10-03T12:27:35.838Z,84.18
2017-10-03T12:28:36.085Z,83.26
2017-10-03T12:29:36.169Z,82.87
2017-10-03T12:30:35.751Z,82.87
2017-10-03T12:31:35.823Z,82.53
2017-10-03T12:32:36.025Z,82.43
2017-10-03T12:33:35.750Z,81.76
2017-10-03T12:34:35.990Z,81.6
2017-10-03T12:35:36.093Z,80.64
2017-10-03T12:36:35.992Z,80.64
2017-10-03T12:37:35.968Z,81.22
2017-10-03T12:38:35.951Z,81.02
2017-10-03T12:39:35.982Z,80.39
2017-10-03T12:40:35.915Z,80
2017-10-03T12:41:35.919Z,80.78
2017-10-03T12:42:35.582Z,80.87
2017-10-03T12:43:35.894Z,80.78
2017-10-03T12:44:35.884Z,80.14
2017-10-03T12:45:35.951Z,79.47
2017-10-03T12:46:35.854Z,79.31
2017-10-03T12:47:35.845Z,79.6
2017-10-03T12:48:35.827Z,78.92
2017-10-03T12:49:35.824Z,78.44
2017-10-03T12:50:35.814Z,78.34
2017-10-03T12:51:35.806Z,78.99
2017-10-03T12:52:35.776Z,79.27
2017-10-03T12:53:35.761Z,80.24